sensor_id;sensor_type;location;lat;lon;timestamp;P1;durP1;ratioP1;P2;durP2;ratioP2
22024;SDS011;11176;51.448;6.650;2023-06-04T00:00:59;4.35;;;1.60;;
22024;SDS011;11176;51.448;6.650;2023-06-04T00:03:26;5.47;;;1.67;;
22024;SDS011;11176;51.448;6.650;2023-06-04T00:05:53;3.70;;;1.60;;
22024;SDS011;11176;51.448;6.650;2023-06-04T00:08:19;3.72;;;1.40;;
22024;SDS011;11176;51.448;6.650;2023-06-04T00:10:46;2.38;;;1.42;;
22024;SDS011;11176;51.448;6.650;2023-06-04T00:13:12;3.00;;;1.27;;
22024;SDS011;11176;51.448;6.650;2023-06-04T00:15:39;2.05;;;1.10;;
22024;SDS011;11176;51.448;6.650;2023-06-04T00:18:06;3.53;;;1.20;;
22024;SDS011;11176;51.448;6.650;2023-06-04T00:20:33;6.10;;;1.27;;
22024;SDS011;11176;51.448;6.650;2023-06-04T00:23:00;2.17;;;1.17;;
22024;SDS011;11176;51.448;6.650;2023-06-04T00:25:26;4.00;;;1.40;;
22024;SDS011;11176;51.448;6.650;2023-06-04T00:27:52;3.78;;;1.52;;
22024;SDS011;11176;51.448;6.650;2023-06-04T00:30:19;3.38;;;1.20;;
22024;SDS011;11176;51.448;6.650;2023-06-04T00:32:46;2.85;;;1.27;;
22024;SDS011;11176;51.448;6.650;2023-06-04T00:35:13;3.60;;;1.50;;
22024;SDS011;11176;51.448;6.650;2023-06-04T00:37:40;2.65;;;1.10;;
22024;SDS011;11176;51.448;6.650;2023-06-04T00:40:06;3.08;;;1.40;;
22024;SDS011;11176;51.448;6.650;2023-06-04T00:42:33;3.70;;;1.42;;
22024;SDS011;11176;51.448;6.650;2023-06-04T00:45:00;4.90;;;1.30;;
22024;SDS011;11176;51.448;6.650;2023-06-04T00:47:26;3.97;;;1.80;;
22024;SDS011;11176;51.448;6.650;2023-06-04T00:49:54;4.80;;;1.65;;
22024;SDS011;11176;51.448;6.650;2023-06-04T00:52:23;3.83;;;1.42;;
22024;SDS011;11176;51.448;6.650;2023-06-04T00:54:50;4.28;;;1.40;;
22024;SDS011;11176;51.448;6.650;2023-06-04T00:57:18;3.03;;;1.13;;
22024;SDS011;11176;51.448;6.650;2023-06-04T00:59:45;4.95;;;1.50;;
22024;SDS011;11176;51.448;6.650;2023-06-04T01:02:12;4.15;;;1.40;;
22024;SDS011;11176;51.448;6.650;2023-06-04T01:04:44;4.75;;;1.10;;
22024;SDS011;11176;51.448;6.650;2023-06-04T01:07:24;4.22;;;1.65;;
22024;SDS011;11176;51.448;6.650;2023-06-04T01:09:53;4.93;;;1.55;;
22024;SDS011;11176;51.448;6.650;2023-06-04T01:12:20;4.25;;;1.23;;
22024;SDS011;11176;51.448;6.650;2023-06-04T01:14:46;5.45;;;1.58;;
22024;SDS011;11176;51.448;6.650;2023-06-04T01:17:15;7.57;;;1.83;;
22024;SDS011;11176;51.448;6.650;2023-06-04T01:22:36;3.92;;;1.95;;
22024;SDS011;11176;51.448;6.650;2023-06-04T01:25:12;7.65;;;2.00;;
22024;SDS011;11176;51.448;6.650;2023-06-04T01:27:54;5.25;;;2.00;;
22024;SDS011;11176;51.448;6.650;2023-06-04T01:30:23;4.50;;;2.22;;
22024;SDS011;11176;51.448;6.650;2023-06-04T01:33:01;4.35;;;2.05;;
22024;SDS011;11176;51.448;6.650;2023-06-04T01:35:29;6.38;;;2.35;;
22024;SDS011;11176;51.448;6.650;2023-06-04T01:37:57;5.55;;;2.38;;
22024;SDS011;11176;51.448;6.650;2023-06-04T01:40:24;8.50;;;2.90;;
22024;SDS011;11176;51.448;6.650;2023-06-04T01:42:52;6.68;;;2.47;;
22024;SDS011;11176;51.448;6.650;2023-06-04T01:45:20;6.25;;;2.35;;
22024;SDS011;11176;51.448;6.650;2023-06-04T01:47:47;5.35;;;2.10;;
22024;SDS011;11176;51.448;6.650;2023-06-04T01:50:13;7.78;;;2.10;;
22024;SDS011;11176;51.448;6.650;2023-06-04T01:52:40;4.28;;;2.30;;
22024;SDS011;11176;51.448;6.650;2023-06-04T01:55:07;4.72;;;2.38;;
22024;SDS011;11176;51.448;6.650;2023-06-04T01:57:35;6.95;;;2.50;;
22024;SDS011;11176;51.448;6.650;2023-06-04T02:00:02;6.03;;;2.17;;
22024;SDS011;11176;51.448;6.650;2023-06-04T02:02:38;6.60;;;2.47;;
22024;SDS011;11176;51.448;6.650;2023-06-04T02:05:07;6.38;;;2.70;;
22024;SDS011;11176;51.448;6.650;2023-06-04T02:07:35;4.93;;;2.58;;
22024;SDS011;11176;51.448;6.650;2023-06-04T02:10:05;8.23;;;2.90;;
22024;SDS011;11176;51.448;6.650;2023-06-04T02:12:35;5.47;;;2.80;;
22024;SDS011;11176;51.448;6.650;2023-06-04T02:15:03;5.85;;;2.70;;
22024;SDS011;11176;51.448;6.650;2023-06-04T02:17:30;6.47;;;2.85;;
22024;SDS011;11176;51.448;6.650;2023-06-04T02:22:35;6.22;;;2.83;;
22024;SDS011;11176;51.448;6.650;2023-06-04T02:25:02;6.57;;;2.85;;
22024;SDS011;11176;51.448;6.650;2023-06-04T02:27:29;5.53;;;2.58;;
22024;SDS011;11176;51.448;6.650;2023-06-04T02:29:55;4.97;;;2.45;;
22024;SDS011;11176;51.448;6.650;2023-06-04T02:32:22;7.35;;;2.60;;
22024;SDS011;11176;51.448;6.650;2023-06-04T02:34:48;5.97;;;2.38;;
22024;SDS011;11176;51.448;6.650;2023-06-04T02:37:15;6.80;;;2.42;;
22024;SDS011;11176;51.448;6.650;2023-06-04T02:39:42;5.18;;;2.38;;
22024;SDS011;11176;51.448;6.650;2023-06-04T02:42:08;4.72;;;2.40;;
22024;SDS011;11176;51.448;6.650;2023-06-04T02:44:35;6.20;;;1.90;;
22024;SDS011;11176;51.448;6.650;2023-06-04T02:47:02;4.47;;;2.15;;
22024;SDS011;11176;51.448;6.650;2023-06-04T02:49:29;3.72;;;1.83;;
22024;SDS011;11176;51.448;6.650;2023-06-04T02:51:56;2.67;;;1.60;;
22024;SDS011;11176;51.448;6.650;2023-06-04T02:54:22;4.43;;;1.77;;
22024;SDS011;11176;51.448;6.650;2023-06-04T02:56:49;3.92;;;1.60;;
22024;SDS011;11176;51.448;6.650;2023-06-04T02:59:16;3.80;;;1.63;;
22024;SDS011;11176;51.448;6.650;2023-06-04T03:01:43;3.22;;;1.58;;
22024;SDS011;11176;51.448;6.650;2023-06-04T03:04:10;6.57;;;1.63;;
22024;SDS011;11176;51.448;6.650;2023-06-04T03:06:40;4.18;;;1.30;;
22024;SDS011;11176;51.448;6.650;2023-06-04T03:09:11;3.45;;;1.30;;
22024;SDS011;11176;51.448;6.650;2023-06-04T03:11:38;3.05;;;1.45;;
22024;SDS011;11176;51.448;6.650;2023-06-04T03:14:04;6.13;;;1.63;;
22024;SDS011;11176;51.448;6.650;2023-06-04T03:16:31;4.80;;;1.30;;
22024;SDS011;11176;51.448;6.650;2023-06-04T03:18:57;5.63;;;1.60;;
22024;SDS011;11176;51.448;6.650;2023-06-04T03:21:24;2.90;;;1.50;;
22024;SDS011;11176;51.448;6.650;2023-06-04T03:23:51;4.35;;;1.60;;
22024;SDS011;11176;51.448;6.650;2023-06-04T03:26:18;2.90;;;1.58;;
22024;SDS011;11176;51.448;6.650;2023-06-04T03:28:45;4.63;;;1.70;;
22024;SDS011;11176;51.448;6.650;2023-06-04T03:31:16;3.80;;;2.00;;
22024;SDS011;11176;51.448;6.650;2023-06-04T03:33:43;4.53;;;1.63;;
22024;SDS011;11176;51.448;6.650;2023-06-04T03:36:09;4.45;;;1.65;;
22024;SDS011;11176;51.448;6.650;2023-06-04T03:38:36;3.75;;;1.40;;
22024;SDS011;11176;51.448;6.650;2023-06-04T03:41:03;2.78;;;1.30;;
22024;SDS011;11176;51.448;6.650;2023-06-04T03:43:29;5.60;;;1.50;;
22024;SDS011;11176;51.448;6.650;2023-06-04T03:46:00;3.35;;;1.80;;
22024;SDS011;11176;51.448;6.650;2023-06-04T03:48:26;3.15;;;1.70;;
22024;SDS011;11176;51.448;6.650;2023-06-04T03:50:53;4.28;;;1.73;;
22024;SDS011;11176;51.448;6.650;2023-06-04T03:53:20;4.95;;;2.00;;
22024;SDS011;11176;51.448;6.650;2023-06-04T03:55:46;2.88;;;1.45;;
22024;SDS011;11176;51.448;6.650;2023-06-04T03:58:13;4.18;;;1.83;;
22024;SDS011;11176;51.448;6.650;2023-06-04T04:00:45;4.20;;;1.83;;
22024;SDS011;11176;51.448;6.650;2023-06-04T04:03:12;4.07;;;2.17;;
22024;SDS011;11176;51.448;6.650;2023-06-04T04:05:39;5.63;;;1.98;;
22024;SDS011;11176;51.448;6.650;2023-06-04T04:08:05;5.30;;;2.05;;
22024;SDS011;11176;51.448;6.650;2023-06-04T04:10:33;4.47;;;2.15;;
22024;SDS011;11176;51.448;6.650;2023-06-04T04:13:02;5.20;;;2.50;;
22024;SDS011;11176;51.448;6.650;2023-06-04T04:15:31;4.35;;;2.20;;
22024;SDS011;11176;51.448;6.650;2023-06-04T04:18:00;8.18;;;2.70;;
22024;SDS011;11176;51.448;6.650;2023-06-04T04:20:28;4.72;;;2.50;;
22024;SDS011;11176;51.448;6.650;2023-06-04T04:23:00;5.60;;;2.38;;
22024;SDS011;11176;51.448;6.650;2023-06-04T04:25:29;3.28;;;1.80;;
22024;SDS011;11176;51.448;6.650;2023-06-04T04:27:55;5.00;;;1.83;;
22024;SDS011;11176;51.448;6.650;2023-06-04T04:30:23;6.15;;;2.00;;
22024;SDS011;11176;51.448;6.650;2023-06-04T04:32:51;2.97;;;1.63;;
22024;SDS011;11176;51.448;6.650;2023-06-04T04:35:31;3.85;;;1.80;;
22024;SDS011;11176;51.448;6.650;2023-06-04T04:38:03;4.25;;;1.90;;
22024;SDS011;11176;51.448;6.650;2023-06-04T04:40:35;3.50;;;1.63;;
22024;SDS011;11176;51.448;6.650;2023-06-04T04:43:03;4.25;;;1.80;;
22024;SDS011;11176;51.448;6.650;2023-06-04T04:45:32;7.88;;;2.10;;
22024;SDS011;11176;51.448;6.650;2023-06-04T04:48:00;6.70;;;1.90;;
22024;SDS011;11176;51.448;6.650;2023-06-04T04:50:26;4.53;;;1.80;;
22024;SDS011;11176;51.448;6.650;2023-06-04T04:52:53;3.58;;;1.70;;
22024;SDS011;11176;51.448;6.650;2023-06-04T04:55:21;3.53;;;1.50;;
22024;SDS011;11176;51.448;6.650;2023-06-04T04:57:49;3.67;;;1.67;;
22024;SDS011;11176;51.448;6.650;2023-06-04T05:00:17;3.88;;;1.73;;
22024;SDS011;11176;51.448;6.650;2023-06-04T05:02:47;4.18;;;1.45;;
22024;SDS011;11176;51.448;6.650;2023-06-04T05:05:14;5.25;;;1.90;;
22024;SDS011;11176;51.448;6.650;2023-06-04T05:07:42;3.90;;;1.85;;
22024;SDS011;11176;51.448;6.650;2023-06-04T05:10:10;3.78;;;1.42;;
22024;SDS011;11176;51.448;6.650;2023-06-04T05:12:37;2.70;;;1.70;;
22024;SDS011;11176;51.448;6.650;2023-06-04T05:15:06;7.35;;;2.00;;
22024;SDS011;11176;51.448;6.650;2023-06-04T05:17:33;6.10;;;2.00;;
22024;SDS011;11176;51.448;6.650;2023-06-04T05:22:41;4.95;;;2.20;;
22024;SDS011;11176;51.448;6.650;2023-06-04T05:25:09;3.95;;;2.10;;
22024;SDS011;11176;51.448;6.650;2023-06-04T05:27:36;3.70;;;1.98;;
22024;SDS011;11176;51.448;6.650;2023-06-04T05:30:06;3.90;;;1.70;;
22024;SDS011;11176;51.448;6.650;2023-06-04T05:32:33;4.30;;;1.80;;
22024;SDS011;11176;51.448;6.650;2023-06-04T05:35:00;4.38;;;1.65;;
22024;SDS011;11176;51.448;6.650;2023-06-04T05:37:32;6.05;;;2.03;;
22024;SDS011;11176;51.448;6.650;2023-06-04T05:40:00;3.58;;;1.80;;
22024;SDS011;11176;51.448;6.650;2023-06-04T05:42:33;7.57;;;1.88;;
22024;SDS011;11176;51.448;6.650;2023-06-04T05:45:00;5.05;;;2.30;;
22024;SDS011;11176;51.448;6.650;2023-06-04T05:47:27;5.35;;;2.20;;
22024;SDS011;11176;51.448;6.650;2023-06-04T05:49:55;4.72;;;2.03;;
22024;SDS011;11176;51.448;6.650;2023-06-04T05:52:23;5.03;;;2.03;;
22024;SDS011;11176;51.448;6.650;2023-06-04T05:54:50;6.05;;;2.40;;
22024;SDS011;11176;51.448;6.650;2023-06-04T05:57:16;5.88;;;2.05;;
22024;SDS011;11176;51.448;6.650;2023-06-04T05:59:44;4.40;;;2.00;;
22024;SDS011;11176;51.448;6.650;2023-06-04T06:02:14;7.43;;;2.10;;
22024;SDS011;11176;51.448;6.650;2023-06-04T06:04:41;9.70;;;2.35;;
22024;SDS011;11176;51.448;6.650;2023-06-04T06:07:08;9.98;;;2.60;;
22024;SDS011;11176;51.448;6.650;2023-06-04T06:09:35;8.52;;;2.70;;
22024;SDS011;11176;51.448;6.650;2023-06-04T06:12:02;9.05;;;2.22;;
22024;SDS011;11176;51.448;6.650;2023-06-04T06:14:29;11.00;;;2.53;;
22024;SDS011;11176;51.448;6.650;2023-06-04T06:16:57;12.13;;;3.38;;
22024;SDS011;11176;51.448;6.650;2023-06-04T06:19:24;3.53;;;1.45;;
22024;SDS011;11176;51.448;6.650;2023-06-04T06:21:51;4.45;;;1.42;;
22024;SDS011;11176;51.448;6.650;2023-06-04T06:24:17;3.97;;;1.48;;
22024;SDS011;11176;51.448;6.650;2023-06-04T06:26:44;4.70;;;1.20;;
22024;SDS011;11176;51.448;6.650;2023-06-04T06:29:12;4.75;;;1.73;;
22024;SDS011;11176;51.448;6.650;2023-06-04T06:31:39;3.35;;;1.40;;
22024;SDS011;11176;51.448;6.650;2023-06-04T06:34:05;3.17;;;1.70;;
22024;SDS011;11176;51.448;6.650;2023-06-04T06:36:32;2.92;;;1.38;;
22024;SDS011;11176;51.448;6.650;2023-06-04T06:38:59;3.90;;;1.38;;
22024;SDS011;11176;51.448;6.650;2023-06-04T06:41:25;3.47;;;1.52;;
22024;SDS011;11176;51.448;6.650;2023-06-04T06:43:52;4.35;;;1.60;;
22024;SDS011;11176;51.448;6.650;2023-06-04T06:46:18;5.07;;;1.85;;
22024;SDS011;11176;51.448;6.650;2023-06-04T06:48:45;3.00;;;1.42;;
22024;SDS011;11176;51.448;6.650;2023-06-04T06:51:13;3.75;;;1.50;;
22024;SDS011;11176;51.448;6.650;2023-06-04T06:53:39;5.05;;;1.70;;
22024;SDS011;11176;51.448;6.650;2023-06-04T06:56:06;4.05;;;1.67;;
22024;SDS011;11176;51.448;6.650;2023-06-04T06:58:33;3.63;;;1.50;;
22024;SDS011;11176;51.448;6.650;2023-06-04T07:00:59;4.72;;;1.73;;
22024;SDS011;11176;51.448;6.650;2023-06-04T07:03:26;3.47;;;1.73;;
22024;SDS011;11176;51.448;6.650;2023-06-04T07:05:53;3.40;;;1.70;;
22024;SDS011;11176;51.448;6.650;2023-06-04T07:08:20;4.05;;;1.77;;
22024;SDS011;11176;51.448;6.650;2023-06-04T07:10:47;4.97;;;1.60;;
22024;SDS011;11176;51.448;6.650;2023-06-04T07:13:13;4.80;;;1.50;;
22024;SDS011;11176;51.448;6.650;2023-06-04T07:15:40;3.88;;;1.60;;
22024;SDS011;11176;51.448;6.650;2023-06-04T07:18:07;3.50;;;1.42;;
22024;SDS011;11176;51.448;6.650;2023-06-04T07:20:33;4.25;;;1.55;;
22024;SDS011;11176;51.448;6.650;2023-06-04T07:23:01;3.85;;;1.67;;
22024;SDS011;11176;51.448;6.650;2023-06-04T07:25:27;5.18;;;1.77;;
22024;SDS011;11176;51.448;6.650;2023-06-04T07:27:54;3.85;;;1.60;;
22024;SDS011;11176;51.448;6.650;2023-06-04T07:30:24;4.80;;;1.38;;
22024;SDS011;11176;51.448;6.650;2023-06-04T07:32:53;3.85;;;1.42;;
22024;SDS011;11176;51.448;6.650;2023-06-04T07:35:20;3.72;;;1.70;;
22024;SDS011;11176;51.448;6.650;2023-06-04T07:37:46;3.90;;;1.77;;
22024;SDS011;11176;51.448;6.650;2023-06-04T07:40:15;3.75;;;1.60;;
22024;SDS011;11176;51.448;6.650;2023-06-04T07:42:44;5.30;;;1.98;;
22024;SDS011;11176;51.448;6.650;2023-06-04T07:45:11;2.75;;;1.60;;
22024;SDS011;11176;51.448;6.650;2023-06-04T07:47:38;4.45;;;1.80;;
22024;SDS011;11176;51.448;6.650;2023-06-04T07:50:05;4.50;;;2.28;;
22024;SDS011;11176;51.448;6.650;2023-06-04T07:52:32;3.60;;;1.90;;
22024;SDS011;11176;51.448;6.650;2023-06-04T07:54:59;7.63;;;2.65;;
22024;SDS011;11176;51.448;6.650;2023-06-04T07:57:27;4.85;;;2.10;;
22024;SDS011;11176;51.448;6.650;2023-06-04T07:59:53;8.32;;;2.40;;
22024;SDS011;11176;51.448;6.650;2023-06-04T08:02:20;4.53;;;2.05;;
22024;SDS011;11176;51.448;6.650;2023-06-04T08:04:47;7.18;;;1.95;;
22024;SDS011;11176;51.448;6.650;2023-06-04T08:07:14;5.22;;;2.28;;
22024;SDS011;11176;51.448;6.650;2023-06-04T08:09:40;5.18;;;1.90;;
22024;SDS011;11176;51.448;6.650;2023-06-04T08:12:08;4.90;;;1.80;;
22024;SDS011;11176;51.448;6.650;2023-06-04T08:14:36;4.43;;;2.53;;
22024;SDS011;11176;51.448;6.650;2023-06-04T08:17:03;5.80;;;2.17;;
22024;SDS011;11176;51.448;6.650;2023-06-04T08:19:29;4.88;;;2.28;;
22024;SDS011;11176;51.448;6.650;2023-06-04T08:21:56;6.80;;;1.85;;
22024;SDS011;11176;51.448;6.650;2023-06-04T08:24:23;6.88;;;2.08;;
22024;SDS011;11176;51.448;6.650;2023-06-04T08:26:49;4.85;;;1.73;;
22024;SDS011;11176;51.448;6.650;2023-06-04T08:29:16;5.05;;;1.40;;
22024;SDS011;11176;51.448;6.650;2023-06-04T08:31:43;2.83;;;1.08;;
22024;SDS011;11176;51.448;6.650;2023-06-04T08:34:09;3.97;;;1.10;;
22024;SDS011;11176;51.448;6.650;2023-06-04T08:36:36;2.50;;;1.02;;
22024;SDS011;11176;51.448;6.650;2023-06-04T08:39:02;3.75;;;1.10;;
22024;SDS011;11176;51.448;6.650;2023-06-04T08:41:42;4.05;;;1.20;;
22024;SDS011;11176;51.448;6.650;2023-06-04T08:44:11;2.53;;;1.02;;
22024;SDS011;11176;51.448;6.650;2023-06-04T08:46:38;3.15;;;1.10;;
22024;SDS011;11176;51.448;6.650;2023-06-04T08:49:07;2.38;;;0.98;;
22024;SDS011;11176;51.448;6.650;2023-06-04T08:51:35;2.17;;;1.20;;
22024;SDS011;11176;51.448;6.650;2023-06-04T08:54:07;4.45;;;1.20;;
22024;SDS011;11176;51.448;6.650;2023-06-04T08:56:36;4.15;;;1.30;;
22024;SDS011;11176;51.448;6.650;2023-06-04T08:59:04;4.63;;;1.10;;
22024;SDS011;11176;51.448;6.650;2023-06-04T09:01:35;4.65;;;1.08;;
22024;SDS011;11176;51.448;6.650;2023-06-04T09:04:04;3.72;;;1.30;;
22024;SDS011;11176;51.448;6.650;2023-06-04T09:06:35;2.15;;;0.80;;
22024;SDS011;11176;51.448;6.650;2023-06-04T09:09:04;3.92;;;1.17;;
22024;SDS011;11176;51.448;6.650;2023-06-04T09:11:36;2.72;;;1.00;;
22024;SDS011;11176;51.448;6.650;2023-06-04T09:14:07;2.95;;;1.02;;
22024;SDS011;11176;51.448;6.650;2023-06-04T09:16:42;2.55;;;1.00;;
22024;SDS011;11176;51.448;6.650;2023-06-04T09:19:13;2.13;;;0.90;;
22024;SDS011;11176;51.448;6.650;2023-06-04T09:21:54;1.95;;;0.88;;
22024;SDS011;11176;51.448;6.650;2023-06-04T09:24:25;4.28;;;1.08;;
22024;SDS011;11176;51.448;6.650;2023-06-04T09:27:10;2.75;;;1.02;;
22024;SDS011;11176;51.448;6.650;2023-06-04T09:29:53;2.63;;;1.10;;
22024;SDS011;11176;51.448;6.650;2023-06-04T09:32:24;2.60;;;1.15;;
22024;SDS011;11176;51.448;6.650;2023-06-04T09:34:55;3.40;;;1.20;;
22024;SDS011;11176;51.448;6.650;2023-06-04T09:37:35;5.47;;;1.45;;
22024;SDS011;11176;51.448;6.650;2023-06-04T09:40:01;2.30;;;1.13;;
22024;SDS011;11176;51.448;6.650;2023-06-04T09:47:55;3.33;;;1.20;;
22024;SDS011;11176;51.448;6.650;2023-06-04T09:50:25;2.47;;;1.02;;
22024;SDS011;11176;51.448;6.650;2023-06-04T09:52:57;4.25;;;1.45;;
22024;SDS011;11176;51.448;6.650;2023-06-04T09:55:23;7.85;;;1.67;;
22024;SDS011;11176;51.448;6.650;2023-06-04T09:57:51;4.00;;;1.40;;
22024;SDS011;11176;51.448;6.650;2023-06-04T10:00:20;3.15;;;1.27;;
22024;SDS011;11176;51.448;6.650;2023-06-04T10:02:49;2.15;;;1.25;;
22024;SDS011;11176;51.448;6.650;2023-06-04T10:05:18;3.00;;;1.10;;
22024;SDS011;11176;51.448;6.650;2023-06-04T10:07:48;3.75;;;1.48;;
22024;SDS011;11176;51.448;6.650;2023-06-04T10:10:23;3.28;;;1.30;;
22024;SDS011;11176;51.448;6.650;2023-06-04T10:12:59;2.40;;;1.40;;
22024;SDS011;11176;51.448;6.650;2023-06-04T10:15:28;2.40;;;1.30;;
22024;SDS011;11176;51.448;6.650;2023-06-04T10:17:58;2.38;;;1.30;;
22024;SDS011;11176;51.448;6.650;2023-06-04T10:20:26;4.13;;;1.35;;
22024;SDS011;11176;51.448;6.650;2023-06-04T10:22:52;4.18;;;1.25;;
22024;SDS011;11176;51.448;6.650;2023-06-04T10:25:20;4.25;;;1.40;;
22024;SDS011;11176;51.448;6.650;2023-06-04T10:27:47;2.20;;;1.30;;
22024;SDS011;11176;51.448;6.650;2023-06-04T10:30:16;3.05;;;1.20;;
22024;SDS011;11176;51.448;6.650;2023-06-04T10:32:42;4.70;;;1.40;;
22024;SDS011;11176;51.448;6.650;2023-06-04T10:35:09;3.80;;;1.50;;
22024;SDS011;11176;51.448;6.650;2023-06-04T10:37:36;2.95;;;1.58;;
22024;SDS011;11176;51.448;6.650;2023-06-04T10:40:02;3.20;;;1.35;;
22024;SDS011;11176;51.448;6.650;2023-06-04T10:42:40;2.83;;;1.30;;
22024;SDS011;11176;51.448;6.650;2023-06-04T10:45:08;3.25;;;1.20;;
22024;SDS011;11176;51.448;6.650;2023-06-04T10:47:36;7.38;;;1.45;;
22024;SDS011;11176;51.448;6.650;2023-06-04T10:50:07;3.55;;;1.50;;
22024;SDS011;11176;51.448;6.650;2023-06-04T10:52:38;3.10;;;1.20;;
22024;SDS011;11176;51.448;6.650;2023-06-04T10:55:17;3.58;;;1.30;;
22024;SDS011;11176;51.448;6.650;2023-06-04T10:57:53;3.45;;;1.58;;
22024;SDS011;11176;51.448;6.650;2023-06-04T11:00:43;4.07;;;1.10;;
22024;SDS011;11176;51.448;6.650;2023-06-04T11:03:15;3.38;;;1.50;;
22024;SDS011;11176;51.448;6.650;2023-06-04T11:05:44;2.33;;;1.17;;
22024;SDS011;11176;51.448;6.650;2023-06-04T11:08:13;3.50;;;1.27;;
22024;SDS011;11176;51.448;6.650;2023-06-04T11:10:41;4.32;;;1.40;;
22024;SDS011;11176;51.448;6.650;2023-06-04T11:13:10;5.32;;;1.48;;
22024;SDS011;11176;51.448;6.650;2023-06-04T11:15:55;3.05;;;1.33;;
22024;SDS011;11176;51.448;6.650;2023-06-04T11:18:22;1.98;;;1.10;;
22024;SDS011;11176;51.448;6.650;2023-06-04T11:20:59;2.55;;;1.40;;
22024;SDS011;11176;51.448;6.650;2023-06-04T11:23:27;2.78;;;1.20;;
22024;SDS011;11176;51.448;6.650;2023-06-04T11:25:54;4.05;;;1.60;;
22024;SDS011;11176;51.448;6.650;2023-06-04T11:28:21;1.95;;;1.17;;
22024;SDS011;11176;51.448;6.650;2023-06-04T11:30:58;3.65;;;1.38;;
22024;SDS011;11176;51.448;6.650;2023-06-04T11:33:41;4.70;;;1.55;;
22024;SDS011;11176;51.448;6.650;2023-06-04T11:36:28;4.28;;;1.30;;
22024;SDS011;11176;51.448;6.650;2023-06-04T11:39:00;2.83;;;1.20;;
22024;SDS011;11176;51.448;6.650;2023-06-04T11:41:31;2.38;;;1.15;;
22024;SDS011;11176;51.448;6.650;2023-06-04T11:44:02;4.30;;;1.42;;
22024;SDS011;11176;51.448;6.650;2023-06-04T11:46:33;3.38;;;1.30;;
22024;SDS011;11176;51.448;6.650;2023-06-04T11:49:04;2.58;;;1.40;;
22024;SDS011;11176;51.448;6.650;2023-06-04T11:51:30;3.08;;;1.40;;
22024;SDS011;11176;51.448;6.650;2023-06-04T11:53:57;2.40;;;1.40;;
22024;SDS011;11176;51.448;6.650;2023-06-04T11:56:24;1.85;;;1.10;;
22024;SDS011;11176;51.448;6.650;2023-06-04T11:58:54;2.30;;;1.10;;
22024;SDS011;11176;51.448;6.650;2023-06-04T12:01:21;4.18;;;1.48;;
22024;SDS011;11176;51.448;6.650;2023-06-04T12:03:49;2.88;;;1.50;;
22024;SDS011;11176;51.448;6.650;2023-06-04T12:06:16;3.05;;;1.15;;
22024;SDS011;11176;51.448;6.650;2023-06-04T12:08:49;3.08;;;1.33;;
22024;SDS011;11176;51.448;6.650;2023-06-04T12:11:26;2.63;;;1.27;;
22024;SDS011;11176;51.448;6.650;2023-06-04T12:13:58;4.50;;;1.50;;
22024;SDS011;11176;51.448;6.650;2023-06-04T12:16:32;5.28;;;1.45;;
22024;SDS011;11176;51.448;6.650;2023-06-04T12:19:06;2.30;;;1.08;;
22024;SDS011;11176;51.448;6.650;2023-06-04T12:21:36;3.85;;;1.25;;
22024;SDS011;11176;51.448;6.650;2023-06-04T12:24:10;4.68;;;1.50;;
22024;SDS011;11176;51.448;6.650;2023-06-04T12:26:39;2.85;;;1.25;;
22024;SDS011;11176;51.448;6.650;2023-06-04T12:29:08;4.05;;;1.27;;
22024;SDS011;11176;51.448;6.650;2023-06-04T12:31:43;2.75;;;1.40;;
22024;SDS011;11176;51.448;6.650;2023-06-04T12:34:15;3.28;;;1.13;;
22024;SDS011;11176;51.448;6.650;2023-06-04T12:36:43;3.67;;;1.70;;
22024;SDS011;11176;51.448;6.650;2023-06-04T12:39:10;2.90;;;1.40;;
22024;SDS011;11176;51.448;6.650;2023-06-04T12:41:36;2.13;;;1.08;;
22024;SDS011;11176;51.448;6.650;2023-06-04T12:44:03;2.95;;;1.38;;
22024;SDS011;11176;51.448;6.650;2023-06-04T12:46:30;3.70;;;1.50;;
22024;SDS011;11176;51.448;6.650;2023-06-04T12:48:56;3.15;;;1.17;;
22024;SDS011;11176;51.448;6.650;2023-06-04T12:51:23;4.93;;;1.33;;
22024;SDS011;11176;51.448;6.650;2023-06-04T12:53:50;3.45;;;1.42;;
22024;SDS011;11176;51.448;6.650;2023-06-04T12:56:17;5.32;;;1.40;;
22024;SDS011;11176;51.448;6.650;2023-06-04T12:58:43;3.85;;;1.23;;
22024;SDS011;11176;51.448;6.650;2023-06-04T13:01:10;4.00;;;1.20;;
22024;SDS011;11176;51.448;6.650;2023-06-04T13:03:37;4.50;;;1.35;;
22024;SDS011;11176;51.448;6.650;2023-06-04T13:06:06;7.03;;;1.75;;
22024;SDS011;11176;51.448;6.650;2023-06-04T13:08:33;2.92;;;1.13;;
22024;SDS011;11176;51.448;6.650;2023-06-04T13:11:00;4.65;;;1.55;;
22024;SDS011;11176;51.448;6.650;2023-06-04T13:13:27;4.30;;;1.42;;
22024;SDS011;11176;51.448;6.650;2023-06-04T13:15:54;4.95;;;1.27;;
22024;SDS011;11176;51.448;6.650;2023-06-04T13:18:21;3.33;;;1.30;;
22024;SDS011;11176;51.448;6.650;2023-06-04T13:20:47;1.88;;;1.20;;
22024;SDS011;11176;51.448;6.650;2023-06-04T13:23:15;3.13;;;1.45;;
22024;SDS011;11176;51.448;6.650;2023-06-04T13:25:42;5.30;;;1.30;;
22024;SDS011;11176;51.448;6.650;2023-06-04T13:28:09;1.90;;;1.10;;
22024;SDS011;11176;51.448;6.650;2023-06-04T13:30:36;4.68;;;1.15;;
22024;SDS011;11176;51.448;6.650;2023-06-04T13:33:06;2.72;;;1.00;;
22024;SDS011;11176;51.448;6.650;2023-06-04T13:35:33;3.60;;;1.10;;
22024;SDS011;11176;51.448;6.650;2023-06-04T13:38:00;5.68;;;1.50;;
22024;SDS011;11176;51.448;6.650;2023-06-04T13:40:28;2.42;;;1.30;;
22024;SDS011;11176;51.448;6.650;2023-06-04T13:42:55;3.55;;;1.25;;
22024;SDS011;11176;51.448;6.650;2023-06-04T13:45:21;2.85;;;1.48;;
22024;SDS011;11176;51.448;6.650;2023-06-04T13:47:48;2.47;;;1.45;;
22024;SDS011;11176;51.448;6.650;2023-06-04T13:50:15;3.20;;;1.15;;
22024;SDS011;11176;51.448;6.650;2023-06-04T13:52:42;3.22;;;1.40;;
22024;SDS011;11176;51.448;6.650;2023-06-04T13:55:09;1.80;;;1.10;;
22024;SDS011;11176;51.448;6.650;2023-06-04T13:57:35;2.30;;;1.15;;
22024;SDS011;11176;51.448;6.650;2023-06-04T14:00:02;3.00;;;1.20;;
22024;SDS011;11176;51.448;6.650;2023-06-04T14:02:31;2.25;;;1.02;;
22024;SDS011;11176;51.448;6.650;2023-06-04T14:04:59;4.30;;;1.70;;
22024;SDS011;11176;51.448;6.650;2023-06-04T14:07:26;3.88;;;1.50;;
22024;SDS011;11176;51.448;6.650;2023-06-04T14:09:52;2.22;;;1.30;;
22024;SDS011;11176;51.448;6.650;2023-06-04T14:12:21;2.53;;;1.48;;
22024;SDS011;11176;51.448;6.650;2023-06-04T14:14:48;3.15;;;1.10;;
22024;SDS011;11176;51.448;6.650;2023-06-04T14:17:15;2.13;;;1.20;;
22024;SDS011;11176;51.448;6.650;2023-06-04T14:19:42;3.20;;;1.35;;
22024;SDS011;11176;51.448;6.650;2023-06-04T14:22:09;4.85;;;1.60;;
22024;SDS011;11176;51.448;6.650;2023-06-04T14:24:39;4.28;;;1.45;;
22024;SDS011;11176;51.448;6.650;2023-06-04T14:27:07;5.05;;;1.75;;
22024;SDS011;11176;51.448;6.650;2023-06-04T14:29:35;4.68;;;1.33;;
22024;SDS011;11176;51.448;6.650;2023-06-04T14:32:06;2.45;;;1.15;;
22024;SDS011;11176;51.448;6.650;2023-06-04T14:34:33;3.47;;;1.40;;
22024;SDS011;11176;51.448;6.650;2023-06-04T14:36:59;3.28;;;1.42;;
22024;SDS011;11176;51.448;6.650;2023-06-04T14:39:26;4.20;;;1.17;;
22024;SDS011;11176;51.448;6.650;2023-06-04T14:41:53;2.17;;;1.20;;
22024;SDS011;11176;51.448;6.650;2023-06-04T14:44:20;2.72;;;1.30;;
22024;SDS011;11176;51.448;6.650;2023-06-04T14:46:48;2.67;;;1.30;;
22024;SDS011;11176;51.448;6.650;2023-06-04T14:49:17;2.55;;;1.40;;
22024;SDS011;11176;51.448;6.650;2023-06-04T14:51:43;3.17;;;1.55;;
22024;SDS011;11176;51.448;6.650;2023-06-04T14:54:10;2.78;;;1.35;;
22024;SDS011;11176;51.448;6.650;2023-06-04T14:56:36;1.25;;;0.75;;
22024;SDS011;11176;51.448;6.650;2023-06-04T14:59:04;2.92;;;1.02;;
22024;SDS011;11176;51.448;6.650;2023-06-04T15:01:35;1.95;;;1.20;;
22024;SDS011;11176;51.448;6.650;2023-06-04T15:04:03;4.40;;;1.30;;
22024;SDS011;11176;51.448;6.650;2023-06-04T15:06:30;2.42;;;1.25;;
22024;SDS011;11176;51.448;6.650;2023-06-04T15:08:57;2.25;;;1.30;;